createdAt,value
2022-09-07T00:00:49.688Z,18.02
2022-09-07T00:01:04.790Z,17.99
2022-09-07T00:02:04.777Z,17.97
2022-09-07T00:03:04.814Z,17.95
2022-09-07T00:04:04.789Z,17.94
2022-09-07T00:05:04.736Z,17.94
2022-09-07T00:06:04.770Z,17.94
2022-09-07T00:08:40.727Z,17.94
2022-09-07T00:08:45.572Z,17.92
2022-09-07T00:09:45.527Z,17.91
2022-09-07T00:10:45.536Z,17.91
2022-09-07T00:11:45.550Z,17.94
2022-09-07T00:12:45.505Z,17.92
2022-09-07T00:13:45.508Z,17.92
2022-09-07T00:14:45.505Z,17.92
2022-09-07T00:15:45.576Z,17.91
2022-09-07T00:16:45.479Z,17.92
2022-09-07T00:17:45.442Z,17.92
2022-09-07T00:18:46.468Z,17.92
2022-09-07T00:19:45.426Z,17.92
2022-09-07T00:20:45.416Z,17.89
2022-09-07T00:21:45.461Z,17.92
2022-09-07T00:22:45.423Z,17.94
2022-09-07T00:23:45.393Z,17.91
2022-09-07T00:24:45.393Z,17.92
2022-09-07T00:25:45.382Z,17.92
2022-09-07T00:26:45.388Z,17.94
2022-09-07T00:27:45.350Z,17.95
2022-09-07T00:28:45.370Z,17.95
2022-09-07T00:29:45.340Z,17.97
2022-09-07T00:30:45.324Z,17.95
2022-09-07T00:31:45.363Z,17.99
2022-09-07T00:32:45.304Z,17.97
2022-09-07T00:33:45.279Z,17.95
2022-09-07T00:34:49.492Z,17.92
2022-09-07T00:35:45.256Z,17.91
2022-09-07T00:36:45.269Z,17.89
2022-09-07T00:37:45.266Z,17.91
2022-09-07T00:38:45.242Z,17.89
2022-09-07T00:39:45.300Z,17.89
2022-09-07T00:40:45.225Z,17.85
2022-09-07T00:41:45.191Z,17.84
2022-09-07T00:42:45.192Z,17.82
2022-09-07T00:43:45.201Z,17.81
2022-09-07T00:44:46.182Z,17.74
2022-09-07T00:45:45.146Z,17.71
2022-09-07T00:46:45.205Z,17.70
2022-09-07T00:47:45.166Z,17.69
2022-09-07T00:48:45.147Z,17.69
2022-09-07T00:49:45.107Z,17.67
2022-09-07T00:50:45.111Z,17.66
2022-09-07T00:51:45.087Z,17.70
2022-09-07T00:52:45.083Z,17.69
2022-09-07T00:53:45.120Z,17.67
2022-09-07T00:54:45.070Z,17.67
2022-09-07T00:55:45.051Z,17.66
2022-09-07T00:56:45.050Z,17.64
2022-09-07T00:57:45.033Z,17.63
2022-09-07T00:58:45.066Z,17.63
2022-09-07T00:59:45.006Z,17.63
2022-09-07T01:00:45.012Z,17.63
2022-09-07T01:01:45.155Z,17.62
2022-09-07T01:02:45.109Z,17.62
2022-09-07T01:03:44.986Z,17.62
2022-09-07T01:04:44.979Z,17.62
2022-09-07T01:05:44.957Z,17.59
2022-09-07T01:06:44.933Z,17.59
2022-09-07T01:07:44.908Z,17.59
2022-09-07T01:10:52.169Z,17.57
2022-09-07T01:10:57.048Z,17.54
2022-09-07T01:11:56.997Z,17.55
2022-09-07T01:12:56.991Z,17.57
2022-09-07T01:13:56.995Z,17.57
2022-09-07T01:14:56.952Z,17.62
2022-09-07T01:15:57.014Z,17.62
2022-09-07T01:16:56.934Z,17.62
2022-09-07T01:17:56.943Z,17.59
2022-09-07T01:18:56.925Z,17.62
2022-09-07T01:19:56.937Z,17.63
2022-09-07T01:20:56.898Z,17.62
2022-09-07T01:21:56.891Z,17.63
2022-09-07T01:22:56.881Z,17.64
2022-09-07T01:23:56.880Z,17.66
2022-09-07T01:24:56.899Z,17.67
2022-09-07T01:25:56.860Z,17.69
2022-09-07T01:26:56.828Z,17.69
2022-09-07T01:27:56.840Z,17.67
2022-09-07T01:28:56.814Z,17.69
2022-09-07T01:29:56.839Z,17.69
2022-09-07T01:30:56.858Z,17.70
2022-09-07T01:31:56.811Z,17.69
2022-09-07T01:32:56.802Z,17.70
2022-09-07T01:33:56.765Z,17.71
2022-09-07T01:34:56.761Z,17.73
2022-09-07T01:35:56.789Z,17.73
2022-09-07T01:36:56.749Z,17.73
2022-09-07T01:37:57.239Z,17.73
2022-09-07T01:38:56.723Z,17.73
2022-09-07T01:39:56.911Z,17.74
2022-09-07T01:40:56.726Z,17.78
2022-09-07T01:41:56.701Z,17.78
2022-09-07T01:42:56.675Z,17.76
2022-09-07T01:43:56.674Z,17.78
2022-09-07T01:44:56.643Z,17.79
2022-09-07T01:45:56.714Z,17.79
2022-09-07T01:46:56.628Z,17.79
2022-09-07T01:47:56.622Z,17.79
2022-09-07T01:48:56.608Z,17.79
2022-09-07T01:52:02.051Z,17.79
2022-09-07T01:52:06.907Z,17.78
2022-09-07T01:53:06.886Z,17.78
2022-09-07T01:54:06.901Z,17.79
2022-09-07T01:55:06.896Z,17.79
2022-09-07T01:56:06.851Z,17.79
2022-09-07T01:57:06.841Z,17.79
2022-09-07T01:58:06.839Z,17.79
2022-09-07T01:59:06.810Z,17.79
2022-09-07T02:00:06.852Z,17.79
2022-09-07T02:01:06.800Z,17.82
2022-09-07T02:02:06.866Z,17.84
2022-09-07T02:03:06.825Z,17.87
2022-09-07T02:04:06.765Z,17.85
2022-09-07T02:05:06.761Z,17.85
2022-09-07T02:06:06.756Z,17.87
2022-09-07T02:07:06.718Z,17.88
2022-09-07T02:08:06.739Z,17.88
2022-09-07T02:10:09.447Z,17.87
2022-09-07T02:10:14.298Z,17.82
2022-09-07T02:11:14.253Z,17.82
2022-09-07T02:12:14.268Z,17.81
2022-09-07T02:13:14.236Z,17.82
2022-09-07T02:14:14.239Z,17.81
2022-09-07T02:15:14.237Z,17.81
2022-09-07T02:16:14.252Z,17.79
2022-09-07T02:17:14.183Z,17.82
2022-09-07T02:18:14.204Z,17.84
2022-09-07T02:19:14.164Z,17.82
2022-09-07T02:20:14.171Z,17.82
2022-09-07T02:21:14.148Z,17.81
2022-09-07T02:22:14.158Z,17.79
2022-09-07T02:23:14.115Z,17.76
2022-09-07T02:24:14.131Z,17.74
2022-09-07T02:25:14.122Z,17.78
2022-09-07T02:26:14.109Z,17.76
2022-09-07T02:27:14.087Z,17.74
2022-09-07T02:29:16.323Z,17.74
2022-09-07T02:29:21.154Z,17.76
2022-09-07T02:30:21.204Z,17.76
2022-09-07T02:31:21.232Z,17.79
2022-09-07T02:32:21.130Z,17.81
2022-09-07T02:33:21.125Z,17.81
2022-09-07T02:34:21.131Z,17.84
2022-09-07T02:35:21.124Z,17.84
2022-09-07T02:36:21.091Z,17.85
2022-09-07T02:37:21.072Z,17.85
2022-09-07T02:38:21.078Z,17.84
2022-09-07T02:39:21.055Z,17.84
2022-09-07T02:40:21.067Z,17.85
2022-09-07T02:41:21.048Z,17.87
2022-09-07T02:42:21.048Z,17.89
2022-09-07T02:43:20.998Z,17.89
2022-09-07T02:44:21.013Z,17.91
2022-09-07T02:45:21.030Z,17.91
2022-09-07T02:46:21.097Z,17.89
2022-09-07T02:47:20.966Z,17.89
2022-09-07T02:48:20.981Z,17.89
2022-09-07T02:49:20.948Z,17.88
2022-09-07T02:50:20.995Z,17.85
2022-09-07T02:51:20.950Z,17.82
2022-09-07T02:52:20.929Z,17.82
2022-09-07T02:53:20.939Z,17.81
2022-09-07T02:54:20.915Z,17.78
2022-09-07T02:55:20.908Z,17.74
2022-09-07T02:56:20.872Z,17.73
2022-09-07T02:57:20.882Z,17.67
2022-09-07T02:58:20.852Z,17.64
2022-09-07T02:59:20.847Z,17.63
2022-09-07T03:00:20.835Z,17.59
2022-09-07T03:01:20.911Z,17.57
2022-09-07T03:02:20.885Z,17.55
2022-09-07T03:03:20.853Z,17.54
2022-09-07T03:04:20.784Z,17.54
2022-09-07T03:05:20.815Z,17.53
2022-09-07T03:06:25.923Z,17.50
2022-09-07T03:07:20.778Z,17.51
2022-09-07T03:08:20.751Z,17.50
2022-09-07T03:09:20.741Z,17.51
2022-09-07T03:10:20.738Z,17.51
2022-09-07T03:11:20.724Z,17.50
2022-09-07T03:12:20.716Z,17.48
2022-09-07T03:13:20.712Z,17.47
2022-09-07T03:14:20.678Z,17.46
2022-09-07T03:15:20.679Z,17.47
2022-09-07T03:16:20.705Z,17.43
2022-09-07T03:17:20.656Z,17.43
2022-09-07T03:18:20.665Z,17.41
2022-09-07T03:19:20.638Z,17.38
2022-09-07T03:20:20.631Z,17.35
2022-09-07T03:21:20.638Z,17.33
2022-09-07T03:22:20.610Z,17.32
2022-09-07T03:23:20.634Z,17.29
2022-09-07T03:24:20.584Z,17.30
2022-09-07T03:25:20.610Z,17.29
2022-09-07T03:26:20.550Z,17.30
2022-09-07T03:27:20.595Z,17.30
2022-09-07T03:28:20.571Z,17.29
2022-09-07T03:29:20.530Z,17.29
2022-09-07T03:30:20.507Z,17.28
2022-09-07T03:31:20.589Z,17.28
2022-09-07T03:32:20.491Z,17.28
2022-09-07T03:33:20.503Z,17.25
2022-09-07T03:34:20.475Z,17.25
2022-09-07T03:35:20.471Z,17.23
2022-09-07T03:36:20.456Z,17.25
2022-09-07T03:37:20.465Z,17.25
2022-09-07T03:38:20.430Z,17.25
2022-09-07T03:39:20.434Z,17.26
2022-09-07T03:40:20.422Z,17.25
2022-09-07T03:41:20.431Z,17.22
2022-09-07T03:42:20.387Z,17.22
2022-09-07T03:43:20.402Z,17.18
2022-09-07T03:44:20.402Z,17.17
2022-09-07T03:45:20.666Z,17.13
2022-09-07T03:46:20.522Z,17.14
2022-09-07T03:47:20.374Z,17.14
2022-09-07T03:48:20.324Z,17.13
2022-09-07T03:49:20.373Z,17.14
2022-09-07T03:50:20.303Z,17.14
2022-09-07T03:51:20.310Z,17.13
2022-09-07T03:53:32.618Z,17.13
2022-09-07T03:54:33.102Z,17.10
2022-09-07T03:55:32.331Z,17.07
2022-09-07T03:56:32.339Z,17.07
2022-09-07T03:57:32.351Z,17.03
2022-09-07T03:58:32.487Z,17.00
2022-09-07T03:59:32.320Z,17.00
2022-09-07T04:00:32.277Z,16.99
2022-09-07T04:01:32.427Z,16.96
2022-09-07T04:02:32.675Z,16.96
2022-09-07T04:03:34.007Z,16.95
2022-09-07T04:04:32.260Z,16.88
2022-09-07T04:05:32.227Z,16.83
2022-09-07T04:06:32.229Z,16.74
2022-09-07T04:07:32.245Z,16.68
2022-09-07T04:08:32.435Z,16.65
2022-09-07T04:09:32.221Z,16.63
2022-09-07T04:10:32.191Z,16.63
2022-09-07T04:11:32.172Z,16.62
2022-09-07T04:12:32.184Z,16.59
2022-09-07T04:13:32.148Z,16.59
2022-09-07T04:14:32.177Z,16.58
2022-09-07T04:15:32.130Z,16.55
2022-09-07T04:16:32.290Z,16.56
2022-09-07T04:17:32.115Z,16.55
2022-09-07T04:18:32.281Z,16.52
2022-09-07T04:19:32.097Z,16.50
2022-09-07T04:20:32.111Z,16.49
2022-09-07T04:21:32.058Z,16.44
2022-09-07T04:22:32.087Z,16.42
2022-09-07T04:23:32.096Z,16.40
2022-09-07T04:24:32.060Z,16.38
2022-09-07T04:25:32.282Z,16.40
2022-09-07T04:26:32.041Z,16.38
2022-09-07T04:27:32.009Z,16.38
2022-09-07T04:28:32.190Z,16.38
2022-09-07T04:29:31.971Z,16.40
2022-09-07T04:30:32.354Z,16.40
2022-09-07T04:31:31.970Z,16.40
2022-09-07T04:32:31.965Z,16.41
2022-09-07T04:33:31.969Z,16.41
2022-09-07T04:34:32.029Z,16.41
2022-09-07T04:35:31.936Z,16.41
2022-09-07T04:36:31.945Z,16.44
2022-09-07T04:37:32.271Z,16.42
2022-09-07T04:38:32.236Z,16.42
2022-09-07T04:40:32.678Z,16.42
2022-09-07T04:41:49.698Z,16.38
2022-09-07T04:42:49.686Z,16.37
2022-09-07T04:43:49.624Z,16.31
2022-09-07T04:44:49.637Z,16.27
2022-09-07T04:45:49.646Z,16.26
2022-09-07T04:46:49.599Z,16.25
2022-09-07T04:47:49.831Z,16.25
2022-09-07T04:48:49.583Z,16.23
2022-09-07T04:49:49.570Z,16.23
2022-09-07T04:50:49.565Z,16.23
2022-09-07T04:51:49.587Z,16.25
2022-09-07T04:52:49.559Z,16.23
2022-09-07T04:53:49.764Z,16.25
2022-09-07T04:54:49.542Z,16.25
2022-09-07T04:55:49.505Z,16.25
2022-09-07T04:56:50.428Z,16.25
2022-09-07T04:57:49.470Z,16.26
2022-09-07T04:58:49.550Z,16.27
2022-09-07T04:59:50.127Z,16.27
2022-09-07T05:00:49.520Z,16.30
2022-09-07T05:01:49.447Z,16.30
2022-09-07T05:02:49.585Z,16.27
2022-09-07T05:03:49.445Z,16.30
2022-09-07T05:04:49.448Z,16.30
2022-09-07T05:05:49.415Z,16.31
2022-09-07T05:06:49.652Z,16.34
2022-09-07T05:07:49.409Z,16.34
2022-09-07T05:08:49.383Z,16.34
2022-09-07T05:09:49.357Z,16.35
2022-09-07T05:16:19.909Z,16.37
2022-09-07T05:17:06.579Z,16.37
2022-09-07T05:18:06.707Z,16.37
2022-09-07T05:19:13.950Z,16.38
2022-09-07T05:20:06.514Z,16.38
2022-09-07T05:21:06.777Z,16.38
2022-09-07T05:22:06.680Z,16.37
2022-09-07T05:23:06.479Z,16.40
2022-09-07T05:24:06.530Z,16.41
2022-09-07T05:25:06.466Z,16.44
2022-09-07T05:26:06.451Z,16.44
2022-09-07T05:27:06.446Z,16.45
2022-09-07T05:28:06.455Z,16.48
2022-09-07T05:30:07.058Z,16.52
2022-09-07T05:31:21.737Z,16.55
2022-09-07T05:32:06.392Z,16.59
2022-09-07T05:33:06.387Z,16.62
2022-09-07T05:35:06.401Z,16.65
2022-09-07T05:36:06.353Z,16.67
2022-09-07T05:37:07.096Z,16.68
2022-09-07T05:38:06.321Z,16.74
2022-09-07T05:39:06.334Z,16.75
2022-09-07T05:40:06.488Z,16.77
2022-09-07T05:41:06.494Z,16.80
2022-09-07T05:42:06.337Z,16.83
2022-09-07T05:45:06.248Z,16.88
2022-09-07T05:46:06.381Z,16.90
2022-09-07T05:47:06.213Z,16.92
2022-09-07T05:48:06.223Z,16.93
2022-09-07T05:49:06.213Z,16.95
2022-09-07T05:50:06.201Z,16.98
2022-09-07T05:51:06.199Z,16.99
2022-09-07T05:52:06.191Z,17.03
2022-09-07T05:53:06.180Z,17.04
2022-09-07T05:54:06.295Z,17.04
2022-09-07T05:55:26.181Z,17.03
2022-09-07T05:56:07.185Z,17.06
2022-09-07T05:57:06.427Z,17.04
2022-09-07T05:58:06.292Z,17.06
2022-09-07T05:59:06.139Z,17.07
2022-09-07T06:00:06.118Z,17.08
2022-09-07T06:01:06.074Z,17.10
2022-09-07T06:02:06.190Z,17.13
2022-09-07T06:03:06.198Z,17.14
2022-09-07T06:04:06.080Z,17.17
2022-09-07T06:05:06.058Z,17.15
2022-09-07T06:06:06.340Z,17.17
2022-09-07T06:07:22.738Z,17.17
2022-09-07T06:08:06.060Z,17.18
2022-09-07T06:09:06.219Z,17.18
2022-09-07T06:11:06.728Z,17.23
2022-09-07T06:12:06.174Z,17.23
2022-09-07T06:13:05.970Z,17.26
2022-09-07T06:14:06.238Z,17.28
2022-09-07T06:15:05.970Z,17.28
2022-09-07T06:16:06.073Z,17.28
2022-09-07T06:17:05.913Z,17.29
2022-09-07T06:18:05.945Z,17.29
2022-09-07T06:19:05.962Z,17.30
2022-09-07T06:20:05.997Z,17.32
2022-09-07T06:21:05.869Z,17.33
2022-09-07T06:22:06.843Z,17.35
2022-09-07T06:23:05.893Z,17.36
2022-09-07T06:24:05.858Z,17.41
2022-09-07T06:25:07.909Z,17.44
2022-09-07T06:37:30.088Z,17.62
2022-09-07T06:38:31.964Z,17.59
2022-09-07T06:39:31.128Z,17.59
2022-09-07T06:40:31.004Z,17.59
2022-09-07T06:42:31.033Z,17.66
2022-09-07T06:43:31.063Z,17.66
2022-09-07T06:44:30.979Z,17.64
2022-09-07T06:45:31.007Z,17.66
2022-09-07T06:47:30.972Z,17.66
2022-09-07T06:48:31.104Z,17.64
2022-09-07T06:49:30.908Z,17.64
2022-09-07T06:50:30.952Z,17.62
2022-09-07T06:51:31.013Z,17.57
2022-09-07T06:53:36.754Z,17.53
2022-09-07T06:55:30.868Z,17.51
2022-09-07T06:56:30.835Z,17.50
2022-09-07T06:57:30.854Z,17.50
2022-09-07T06:58:30.952Z,17.47
2022-09-07T06:59:30.913Z,17.48
2022-09-07T07:00:30.827Z,17.47
2022-09-07T07:01:30.870Z,17.46
2022-09-07T07:02:30.765Z,17.46
2022-09-07T07:03:30.855Z,17.44
2022-09-07T07:04:30.792Z,17.43
2022-09-07T07:05:30.749Z,17.43
2022-09-07T07:06:30.772Z,17.46
2022-09-07T07:07:30.753Z,17.48
2022-09-07T07:08:30.916Z,17.48
2022-09-07T07:09:30.706Z,17.50
2022-09-07T07:10:30.713Z,17.51
2022-09-07T07:11:30.670Z,17.53
2022-09-07T07:15:10.963Z,17.57
2022-09-07T07:16:09.534Z,17.57
2022-09-07T07:17:09.700Z,17.59
2022-09-07T07:18:20.832Z,17.55
2022-09-07T07:19:09.413Z,17.57
2022-09-07T07:20:09.375Z,17.57
2022-09-07T07:21:09.360Z,17.57
2022-09-07T07:22:45.670Z,17.57
2022-09-07T07:23:09.461Z,17.55
2022-09-07T07:24:09.527Z,17.59
2022-09-07T07:25:09.310Z,17.59
2022-09-07T07:26:09.510Z,17.62
2022-09-07T07:27:09.471Z,17.62
2022-09-07T07:29:09.279Z,17.66
2022-09-07T07:30:09.279Z,17.66
2022-09-07T07:31:12.949Z,17.67
2022-09-07T07:32:09.247Z,17.69
2022-09-07T07:33:09.304Z,17.69
2022-09-07T07:34:09.303Z,17.70
2022-09-07T07:35:09.244Z,17.71
2022-09-07T07:36:09.222Z,17.71
2022-09-07T07:37:09.221Z,17.71
2022-09-07T07:40:17.931Z,17.74
2022-09-07T07:42:09.121Z,17.76
2022-09-07T07:43:09.135Z,17.79
2022-09-07T07:44:09.132Z,17.81
2022-09-07T07:46:09.187Z,17.82
2022-09-07T07:47:09.093Z,17.84
2022-09-07T07:48:09.211Z,17.84
2022-09-07T07:49:09.065Z,17.84
2022-09-07T07:51:12.069Z,17.85
2022-09-07T07:54:09.014Z,17.89
2022-09-07T07:56:09.090Z,17.89
2022-09-07T07:57:09.012Z,17.91
2022-09-07T07:58:09.065Z,17.94
2022-09-07T07:59:12.564Z,17.94
2022-09-07T08:00:08.975Z,17.97
2022-09-07T08:01:08.989Z,18.02
2022-09-07T08:02:09.207Z,18.03
2022-09-07T08:03:08.932Z,18.06
2022-09-07T08:04:08.979Z,18.10
2022-09-07T08:05:08.902Z,18.13
2022-09-07T08:06:08.890Z,18.17
2022-09-07T08:07:11.054Z,18.21
2022-09-07T08:08:08.862Z,18.25
2022-09-07T08:09:08.899Z,18.27
2022-09-07T08:10:08.849Z,18.31
2022-09-07T08:11:08.838Z,18.37
2022-09-07T08:12:08.832Z,18.40
2022-09-07T08:13:08.842Z,18.43
2022-09-07T08:14:08.810Z,18.47
2022-09-07T08:15:08.829Z,18.54
2022-09-07T08:16:08.870Z,18.58
2022-09-07T08:17:08.790Z,18.62
2022-09-07T08:18:08.804Z,18.68
2022-09-07T08:19:08.770Z,18.73
2022-09-07T08:20:08.752Z,18.80
2022-09-07T08:21:08.752Z,18.84
2022-09-07T08:22:08.751Z,18.92
2022-09-07T08:23:08.749Z,18.98
2022-09-07T08:24:08.733Z,19.05
2022-09-07T08:25:08.687Z,19.11
2022-09-07T08:26:08.698Z,19.17
2022-09-07T08:27:08.669Z,19.23
2022-09-07T08:28:08.666Z,19.25
2022-09-07T08:29:08.659Z,19.32
2022-09-07T08:30:08.674Z,19.36
2022-09-07T08:31:08.736Z,19.47
2022-09-07T08:32:08.637Z,19.58
2022-09-07T08:33:08.607Z,19.69
2022-09-07T08:34:08.631Z,19.79
2022-09-07T08:35:08.629Z,19.93
2022-09-07T08:36:08.578Z,20.05
2022-09-07T08:37:08.598Z,20.21
2022-09-07T08:38:08.551Z,20.34
2022-09-07T08:39:08.684Z,20.47
2022-09-07T08:40:08.615Z,20.59
2022-09-07T08:41:08.544Z,20.76
2022-09-07T08:42:08.514Z,20.95
2022-09-07T08:43:08.546Z,20.90
2022-09-07T08:44:08.500Z,20.99
2022-09-07T08:45:08.519Z,21.21
2022-09-07T08:46:08.514Z,21.48
2022-09-07T08:47:08.476Z,21.75
2022-09-07T08:48:08.460Z,22.06
2022-09-07T08:49:08.468Z,22.32
2022-09-07T08:50:17.227Z,22.47
2022-09-07T08:51:08.428Z,22.65
2022-09-07T08:52:08.405Z,22.86
2022-09-07T08:53:09.505Z,22.80
2022-09-07T08:54:08.596Z,22.67
2022-09-07T08:55:08.642Z,22.50
2022-09-07T08:56:08.377Z,22.47
2022-09-07T08:57:25.242Z,22.39
2022-09-07T08:58:18.019Z,22.62
2022-09-07T08:59:09.139Z,22.53
2022-09-07T09:00:08.379Z,22.52
2022-09-07T09:04:16.670Z,22.46
2022-09-07T09:05:17.598Z,22.65
2022-09-07T09:06:08.784Z,22.56
2022-09-07T09:07:09.291Z,22.44
2022-09-07T09:08:08.318Z,22.56
2022-09-07T09:09:08.738Z,22.52
2022-09-07T09:10:08.257Z,22.71
2022-09-07T09:11:08.232Z,22.89
2022-09-07T09:12:08.218Z,23.04
2022-09-07T09:13:08.262Z,23.17
2022-09-07T09:14:08.206Z,23.35
2022-09-07T09:15:08.227Z,23.46
2022-09-07T09:16:08.305Z,23.62
2022-09-07T09:17:08.200Z,23.89
2022-09-07T09:18:10.108Z,24.13
2022-09-07T09:19:12.671Z,24.45
2022-09-07T09:20:08.175Z,24.80
2022-09-07T09:21:08.455Z,25.12
2022-09-07T09:22:08.132Z,25.31
2022-09-07T09:23:08.120Z,25.54
2022-09-07T09:24:08.108Z,25.74
2022-09-07T09:25:08.204Z,25.89
2022-09-07T09:26:08.086Z,26.17
2022-09-07T09:27:08.083Z,26.20
2022-09-07T09:28:08.065Z,26.25
2022-09-07T09:29:08.073Z,26.04
2022-09-07T09:30:08.043Z,25.74
2022-09-07T09:31:08.099Z,25.74
2022-09-07T09:32:08.014Z,26.05
2022-09-07T09:33:08.674Z,26.01
2022-09-07T09:34:08.080Z,25.86
2022-09-07T09:35:07.990Z,26.04
2022-09-07T09:36:07.986Z,26.24
2022-09-07T09:37:09.092Z,26.44
2022-09-07T09:38:08.206Z,26.59
2022-09-07T09:39:08.055Z,26.32
2022-09-07T09:40:07.982Z,26.15
2022-09-07T09:41:08.075Z,26.46
2022-09-07T09:42:07.958Z,26.76
2022-09-07T09:43:08.167Z,27.04
2022-09-07T09:44:07.947Z,27.23
2022-09-07T09:45:07.954Z,27.32
2022-09-07T09:46:15.123Z,27.33
2022-09-07T09:48:07.904Z,27.67
2022-09-07T09:49:07.912Z,27.69
2022-09-07T09:50:08.135Z,27.79
2022-09-07T09:53:07.835Z,27.99
2022-09-07T09:54:07.840Z,27.94
2022-09-07T09:56:07.808Z,28.14
2022-09-07T09:57:07.817Z,28.22
2022-09-07T10:00:11.725Z,28.44
2022-09-07T10:01:24.642Z,28.53
2022-09-07T10:04:12.684Z,27.01
2022-09-07T10:05:07.798Z,26.61
2022-09-07T10:06:07.740Z,26.22
2022-09-07T10:07:07.720Z,25.84
2022-09-07T10:08:07.702Z,25.39
2022-09-07T10:09:07.912Z,25.02
2022-09-07T10:10:07.688Z,24.83
2022-09-07T10:11:07.701Z,24.61
2022-09-07T10:12:08.417Z,24.50
2022-09-07T10:13:07.655Z,24.44
2022-09-07T10:14:07.682Z,24.44
2022-09-07T10:15:07.646Z,24.47
2022-09-07T10:16:07.671Z,24.57
2022-09-07T10:17:07.656Z,24.63
2022-09-07T10:18:07.595Z,24.73
2022-09-07T10:19:07.631Z,24.76
2022-09-07T10:20:07.746Z,24.82
2022-09-07T10:21:07.741Z,24.85
2022-09-07T10:24:07.860Z,24.64
2022-09-07T10:24:13.022Z,24.38
2022-09-07T10:25:12.703Z,24.26
2022-09-07T10:26:12.735Z,24.12
2022-09-07T10:27:12.673Z,24.07
2022-09-07T10:28:12.664Z,24.13
2022-09-07T10:29:13.082Z,24.20
2022-09-07T10:30:12.650Z,24.23
2022-09-07T10:31:15.400Z,24.22
2022-09-07T10:32:12.630Z,24.24
2022-09-07T10:33:12.752Z,24.31
2022-09-07T10:34:27.948Z,24.35
2022-09-07T10:35:12.634Z,24.38
2022-09-07T10:36:12.556Z,24.42
2022-09-07T10:37:12.812Z,24.47
2022-09-07T10:38:12.545Z,24.53
2022-09-07T10:39:12.573Z,24.56
2022-09-07T10:40:12.632Z,24.57
2022-09-07T10:41:15.119Z,24.59
2022-09-07T10:42:12.543Z,24.63
2022-09-07T10:43:27.830Z,24.69
2022-09-07T10:44:12.547Z,24.68
2022-09-07T10:45:12.844Z,24.67
2022-09-07T10:46:12.551Z,24.69
2022-09-07T10:47:13.672Z,24.79
2022-09-07T10:48:12.465Z,24.83
2022-09-07T10:49:12.832Z,24.88
2022-09-07T10:50:27.917Z,24.90
2022-09-07T10:51:14.299Z,24.91
2022-09-07T10:52:12.454Z,24.90
2022-09-07T10:53:36.901Z,24.88
2022-09-07T10:55:14.226Z,24.87
2022-09-07T10:56:12.421Z,24.87
2022-09-07T10:57:12.431Z,24.87
2022-09-07T10:58:12.369Z,24.87
2022-09-07T10:59:12.688Z,24.85
2022-09-07T11:00:12.735Z,24.82
2022-09-07T11:01:12.367Z,24.88
2022-09-07T11:02:12.404Z,24.91
2022-09-07T11:03:28.120Z,25.00
2022-09-07T11:04:12.351Z,25.05
2022-09-07T11:05:19.875Z,25.06
2022-09-07T11:06:12.571Z,25.06
2022-09-07T11:07:15.458Z,25.02
2022-09-07T11:08:13.229Z,25.00
2022-09-07T11:09:20.024Z,24.92
2022-09-07T11:10:12.243Z,24.79
2022-09-07T11:11:12.216Z,24.77
2022-09-07T11:12:12.337Z,24.75
2022-09-07T11:13:15.234Z,24.71
2022-09-07T11:14:13.727Z,24.75
2022-09-07T11:15:12.285Z,24.75
2022-09-07T11:16:50.405Z,24.76
2022-09-07T11:17:44.105Z,24.69
2022-09-07T11:18:12.207Z,24.64
2022-09-07T11:19:36.128Z,24.57
2022-09-07T11:22:25.631Z,24.41
2022-09-07T11:23:26.358Z,24.34
2022-09-07T11:24:26.326Z,24.27
2022-09-07T11:25:32.810Z,24.22
2022-09-07T11:26:25.537Z,24.16
2022-09-07T11:27:25.560Z,24.12
2022-09-07T11:28:25.686Z,24.10
2022-09-07T11:29:32.676Z,24.10
2022-09-07T11:30:37.481Z,24.10
2022-09-07T11:31:25.571Z,24.12
2022-09-07T11:32:25.497Z,24.13
2022-09-07T11:33:26.006Z,24.17
2022-09-07T11:34:26.225Z,24.17
2022-09-07T11:35:25.501Z,24.20
2022-09-07T11:36:25.977Z,24.23
2022-09-07T11:37:26.143Z,24.24
2022-09-07T11:38:24.839Z,24.27
2022-09-07T11:39:31.300Z,24.32
2022-09-07T11:40:25.403Z,24.37
2022-09-07T11:41:25.685Z,24.38
2022-09-07T11:44:47.846Z,24.60
2022-09-07T11:45:48.797Z,24.63
2022-09-07T11:46:48.761Z,24.64
2022-09-07T11:47:48.763Z,24.61
2022-09-07T11:48:48.706Z,24.59
2022-09-07T11:49:52.607Z,24.59
2022-09-07T11:50:49.057Z,24.57
2022-09-07T11:51:53.644Z,24.57
2022-09-07T11:52:53.552Z,24.57
2022-09-07T11:53:49.619Z,24.59
2022-09-07T11:57:55.438Z,24.63
2022-09-07T11:58:53.043Z,24.61
2022-09-07T11:59:53.047Z,24.61
2022-09-07T12:01:23.734Z,24.59
2022-09-07T12:01:53.050Z,24.59
2022-09-07T12:02:59.700Z,24.57
2022-09-07T12:04:01.102Z,24.56
2022-09-07T12:04:58.818Z,24.56
2022-09-07T12:05:53.004Z,24.57
2022-09-07T12:06:52.984Z,24.59
2022-09-07T12:10:25.384Z,24.57
2022-09-07T12:11:07.039Z,24.56
2022-09-07T12:12:07.022Z,24.60
2022-09-07T12:13:07.013Z,24.59
2022-09-07T12:14:07.001Z,24.59
2022-09-07T12:15:06.986Z,24.57
2022-09-07T12:16:07.074Z,24.63
2022-09-07T12:17:06.963Z,24.68
2022-09-07T12:18:06.957Z,24.77
2022-09-07T12:19:06.934Z,24.85
2022-09-07T12:20:06.927Z,24.85
2022-09-07T12:21:06.942Z,24.88
2022-09-07T12:22:06.914Z,24.88
2022-09-07T12:23:06.888Z,24.90
2022-09-07T12:24:06.905Z,24.92
2022-09-07T12:25:06.883Z,24.92
2022-09-07T12:26:06.889Z,24.95
2022-09-07T12:27:06.844Z,25.00
2022-09-07T12:28:06.857Z,25.05
2022-09-07T12:29:07.015Z,25.05
2022-09-07T12:30:06.860Z,25.10
2022-09-07T12:31:06.994Z,25.15
2022-09-07T12:32:53.375Z,25.16
2022-09-07T12:33:06.852Z,25.19
2022-09-07T12:34:06.796Z,25.20
2022-09-07T12:35:06.771Z,25.22
2022-09-07T12:36:06.786Z,25.22
2022-09-07T12:37:11.649Z,25.19
2022-09-07T12:38:06.762Z,25.17
2022-09-07T12:39:06.742Z,25.19
2022-09-07T12:40:06.801Z,25.19
2022-09-07T12:41:06.761Z,25.17
2022-09-07T12:43:09.821Z,25.22
2022-09-07T12:44:06.699Z,25.30
2022-09-07T12:45:06.669Z,25.37
2022-09-07T12:46:06.766Z,25.39
2022-09-07T12:47:06.645Z,25.39
2022-09-07T12:48:06.662Z,25.42
2022-09-07T12:49:06.646Z,25.38
2022-09-07T12:50:06.870Z,25.35
2022-09-07T12:51:06.637Z,25.34
2022-09-07T12:52:15.129Z,25.35
2022-09-07T12:54:28.362Z,25.32
2022-09-07T12:55:29.163Z,25.30
2022-09-07T12:56:19.611Z,25.30
2022-09-07T12:57:34.932Z,25.30
2022-09-07T13:01:29.659Z,25.31
2022-09-07T13:02:12.120Z,25.32
2022-09-07T13:04:12.627Z,25.38
2022-09-07T13:05:11.735Z,25.42
2022-09-07T13:06:15.709Z,25.44
2022-09-07T13:07:20.136Z,25.47
2022-09-07T13:08:11.661Z,25.46
2022-09-07T13:09:11.653Z,25.46
2022-09-07T13:10:11.667Z,25.46
2022-09-07T13:13:16.161Z,25.43
2022-09-07T13:14:10.718Z,25.38
2022-09-07T13:15:38.206Z,25.43
2022-09-07T13:19:57.801Z,25.32
2022-09-07T13:20:58.541Z,25.31
2022-09-07T13:21:58.501Z,25.24
2022-09-07T13:22:58.508Z,25.24
2022-09-07T13:23:58.637Z,25.17
2022-09-07T13:24:58.512Z,25.16
2022-09-07T13:26:07.051Z,25.15
2022-09-07T13:26:57.498Z,25.13
2022-09-07T13:33:07.891Z,25.20
2022-09-07T13:33:14.742Z,25.19
2022-09-07T13:34:03.328Z,25.24
2022-09-07T13:35:03.252Z,25.28
2022-09-07T13:36:03.265Z,25.30
2022-09-07T13:37:03.265Z,25.28
2022-09-07T13:38:04.093Z,25.25
2022-09-07T13:39:03.319Z,25.24
2022-09-07T13:40:03.266Z,25.25
2022-09-07T13:41:03.214Z,25.25
2022-09-07T13:42:03.201Z,25.28
2022-09-07T13:43:03.163Z,25.30
2022-09-07T13:46:12.084Z,25.32
2022-09-07T13:46:24.772Z,25.28
2022-09-07T13:47:17.013Z,25.28
2022-09-07T13:48:17.020Z,25.28
2022-09-07T13:49:16.934Z,25.28
2022-09-07T13:51:31.738Z,25.24
2022-09-07T13:51:44.227Z,25.22
2022-09-07T13:52:36.881Z,25.17
2022-09-07T13:55:25.602Z,25.15
2022-09-07T13:56:19.583Z,25.12
2022-09-07T13:57:19.412Z,25.09
2022-09-07T13:58:19.404Z,25.09
2022-09-07T13:59:19.994Z,25.10
2022-09-07T14:00:19.351Z,25.07
2022-09-07T14:01:19.384Z,25.06
2022-09-07T14:02:19.353Z,25.00
2022-09-07T14:03:19.325Z,24.94
2022-09-07T14:04:19.300Z,24.91
2022-09-07T14:05:19.286Z,24.90
2022-09-07T14:06:19.299Z,24.88
2022-09-07T14:07:19.269Z,24.88
2022-09-07T14:08:19.267Z,24.88
2022-09-07T14:09:19.242Z,24.85
2022-09-07T14:10:19.239Z,24.83
2022-09-07T14:11:19.257Z,24.82
2022-09-07T14:12:19.217Z,24.82
2022-09-07T14:13:19.233Z,24.83
2022-09-07T14:14:19.190Z,24.87
2022-09-07T14:15:19.198Z,24.87
2022-09-07T14:20:39.199Z,24.87
2022-09-07T14:20:44.025Z,24.94